Westhoff, Texas
Current Conditions -  °F | °C
As of 8:55 PM on Wednesday 26 Nov 2014 (Local Time) from KT20 Reporting Station
Clear Clear  
Wind Chill: 54°   Ceiling: Unl
Heat Index: 54°   Visibility: 10mi
Dew Point: 38°   Wind: 0mph
Humidity: 55%   Direction: NA
Pressure: 30.27"   Gusts: NA
Location:  29.2°N, 97.47°W
Report Text: KT20 270255Z AUTO 00000KT 10SM CLR 12/03 A3027 RMK AO2 T01220034
Loading
Personal Weather Stations






























Interactive Weather Map New forecast layout! Learn more

10-Day Weather Forecast

Advertisements
Track Severe Weather on mobile